Time;durP1;ratioP1;P1;durP2;ratioP2;P2;SDS_P1;SDS_P2;PMS_P1;PMS_P2;Temp;Humidity;BMP_temperature;BMP_pressure;BME280_temperature;BME280_humidity;BME280_pressure;Samples;Min_cycle;Max_cycle;Signal;HPM_P1;HPM_P2
2023/12/28 00:00:37;;;;;;;;;;;18.00;65.50;;;;;;5093164;28;1300;-71
2023/12/28 00:03:03;;;;;;;;;;;18.00;65.50;;;;;;5057846;28;1348;-70
2023/12/28 00:05:28;;;;;;;;;;;18.00;65.50;;;;;;5059388;28;1801;-69
2023/12/28 00:07:57;;;;;;;;;;;18.00;65.50;;;;;;5059254;28;1910;-70
2023/12/28 00:10:27;;;;;;;;;;;18.00;65.50;;;;;;5060557;28;1314;-70
2023/12/28 00:12:53;;;;;;;;;;;18.00;65.50;;;;;;5061602;28;1342;-69
2023/12/28 00:15:18;;;;;;;;;;;18.00;65.50;;;;;;5057795;28;1236;-69
2023/12/28 00:17:44;;;;;;;;;;;18.00;65.60;;;;;;5091596;28;1682;-69
2023/12/28 00:20:09;;;;;;;;;;;18.00;65.50;;;;;;5059666;28;1377;-69
2023/12/28 00:22:37;;;;;;;;;;;18.00;65.50;;;;;;5059826;28;1879;-70
2023/12/28 00:25:03;;;;;;;;;;;18.00;65.60;;;;;;5058671;28;1267;-70
2023/12/28 00:27:28;;;;;;;;;;;18.00;65.60;;;;;;5057906;28;1906;-71
2023/12/28 00:29:54;;;;;;;;;;;18.00;65.60;;;;;;5054252;28;1276;-70
2023/12/28 00:32:19;;;;;;;;;;;18.00;65.60;;;;;;5058744;28;1284;-69
2023/12/28 00:34:45;;;;;;;;;;;18.00;65.60;;;;;;5057998;28;997;-68
2023/12/28 00:37:10;;;;;;;;;;;18.00;65.60;;;;;;5059853;28;1266;-68
2023/12/28 00:39:36;;;;;;;;;;;18.00;65.60;;;;;;5056757;28;1454;-68
2023/12/28 00:42:01;;;;;;;;;;;18.00;65.60;;;;;;5054163;28;1417;-68
2023/12/28 00:44:26;;;;;;;;;;;18.00;65.60;;;;;;5059432;28;1439;-68
2023/12/28 00:46:52;;;;;;;;;;;18.00;65.60;;;;;;5056999;28;1969;-69
2023/12/28 00:49:17;;;;;;;;;;;18.00;65.70;;;;;;5060540;28;1290;-68
2023/12/28 00:51:43;;;;;;;;;;;18.00;65.70;;;;;;5061513;28;1402;-68
2023/12/28 00:54:08;;;;;;;;;;;18.00;65.70;;;;;;5060736;28;1137;-68
2023/12/28 00:56:34;;;;;;;;;;;18.00;65.70;;;;;;5060097;28;1268;-69
2023/12/28 00:59:01;;;;;;;;;;;18.00;65.70;;;;;;5058462;28;1332;-68
2023/12/28 01:01:27;;;;;;;;;;;18.00;65.70;;;;;;5058061;28;1412;-68
2023/12/28 01:03:52;;;;;;;;;;;18.00;65.70;;;;;;5092343;28;1635;-68
2023/12/28 01:06:17;;;;;;;;;;;18.00;65.70;;;;;;5061381;28;1367;-68
2023/12/28 01:08:43;;;;;;;;;;;18.00;65.70;;;;;;5061590;28;1914;-68
2023/12/28 01:11:10;;;;;;;;;;;18.00;65.70;;;;;;5057792;28;1325;-68
2023/12/28 01:13:36;;;;;;;;;;;17.90;65.70;;;;;;5062750;28;1270;-68
2023/12/28 01:16:02;;;;;;;;;;;17.90;65.70;;;;;;5059533;28;1401;-69
2023/12/28 01:18:27;;;;;;;;;;;18.00;65.80;;;;;;5058714;28;1318;-69
2023/12/28 01:20:53;;;;;;;;;;;17.90;65.70;;;;;;5060616;28;1369;-69
2023/12/28 01:23:18;;;;;;;;;;;17.90;65.70;;;;;;5093424;28;1314;-69
2023/12/28 01:25:44;;;;;;;;;;;17.90;65.70;;;;;;5065226;28;832;-68
2023/12/28 01:28:09;;;;;;;;;;;17.90;65.70;;;;;;5060392;28;1909;-68
2023/12/28 01:30:35;;;;;;;;;;;17.90;65.70;;;;;;5061088;28;1300;-68
2023/12/28 01:33:00;;;;;;;;;;;17.90;65.70;;;;;;5063762;28;1340;-68
2023/12/28 01:35:26;;;;;;;;;;;17.90;65.70;;;;;;5058773;28;1404;-69
2023/12/28 01:37:51;;;;;;;;;;;17.90;65.70;;;;;;5063992;28;1199;-69
2023/12/28 01:40:17;;;;;;;;;;;17.90;65.80;;;;;;5061866;28;1301;-68
2023/12/28 01:42:42;;;;;;;;;;;17.90;65.80;;;;;;5093779;28;1296;-69
2023/12/28 01:45:08;;;;;;;;;;;17.90;65.80;;;;;;5063076;28;1303;-68
2023/12/28 01:47:33;;;;;;;;;;;17.90;65.80;;;;;;5064638;28;1902;-68
2023/12/28 01:49:58;;;;;;;;;;;17.90;65.80;;;;;;5061029;28;1292;-68
2023/12/28 01:52:24;;;;;;;;;;;17.90;65.80;;;;;;5094124;28;1273;-69
2023/12/28 01:54:49;;;;;;;;;;;17.90;65.80;;;;;;5065795;28;1359;-69
2023/12/28 01:57:15;;;;;;;;;;;17.90;65.80;;;;;;5062763;28;1226;-71
2023/12/28 01:59:40;;;;;;;;;;;17.90;65.80;;;;;;5062097;28;1492;-71
2023/12/28 02:02:06;;;;;;;;;;;17.90;65.80;;;;;;5060525;28;1390;-71
2023/12/28 02:04:31;;;;;;;;;;;17.90;65.90;;;;;;5060996;28;1650;-70
2023/12/28 02:06:57;;;;;;;;;;;17.90;65.80;;;;;;5061273;28;1909;-71
2023/12/28 02:09:23;;;;;;;;;;;17.90;65.80;;;;;;5062601;28;1432;-70
2023/12/28 02:11:48;;;;;;;;;;;17.90;65.80;;;;;;5063378;28;1777;-70
2023/12/28 02:14:14;;;;;;;;;;;17.90;65.80;;;;;;5064136;28;1607;-69
2023/12/28 02:16:41;;;;;;;;;;;17.90;65.90;;;;;;5062079;28;1607;-70
2023/12/28 02:19:12;;;;;;;;;;;17.90;65.90;;;;;;5057414;28;1547;-70
2023/12/28 02:21:37;;;;;;;;;;;17.90;65.90;;;;;;5059809;28;1397;-71
2023/12/28 02:24:03;;;;;;;;;;;17.90;66.00;;;;;;5059433;28;1445;-71
2023/12/28 02:26:28;;;;;;;;;;;17.90;65.90;;;;;;5061398;28;1464;-70
2023/12/28 02:28:54;;;;;;;;;;;17.90;65.90;;;;;;5061351;28;1975;-70
2023/12/28 02:31:21;;;;;;;;;;;17.90;65.90;;;;;;5091603;28;1315;-70
2023/12/28 02:33:54;;;;;;;;;;;17.90;66.00;;;;;;5060989;28;1749;-69
2023/12/28 02:36:22;;;;;;;;;;;17.90;66.00;;;;;;5091419;28;1342;-71
2023/12/28 02:38:47;;;;;;;;;;;17.90;66.00;;;;;;5057631;28;1328;-69
2023/12/28 02:41:12;;;;;;;;;;;17.90;66.00;;;;;;5056617;28;1378;-69
2023/12/28 02:43:38;;;;;;;;;;;17.90;66.00;;;;;;5096180;28;1418;-70
2023/12/28 02:46:03;;;;;;;;;;;17.90;66.00;;;;;;5058824;28;1422;-71
2023/12/28 02:48:29;;;;;;;;;;;17.90;66.00;;;;;;5060980;28;1902;-70
2023/12/28 02:50:54;;;;;;;;;;;17.90;66.00;;;;;;5063332;28;1771;-71
2023/12/28 02:53:20;;;;;;;;;;;17.90;65.50;;;;;;5061344;28;1632;-70
2023/12/28 02:55:45;;;;;;;;;;;17.90;66.00;;;;;;5092602;28;1666;-70
2023/12/28 02:58:11;;;;;;;;;;;17.90;66.00;;;;;;5058780;28;1511;-69
2023/12/28 03:00:37;;;;;;;;;;;17.90;66.00;;;;;;5060582;28;1692;-70
2023/12/28 03:03:02;;;;;;;;;;;17.90;66.00;;;;;;5058068;28;1264;-70
2023/12/28 03:05:28;;;;;;;;;;;17.90;66.00;;;;;;5060771;28;1449;-70
2023/12/28 03:07:55;;;;;;;;;;;17.90;66.30;;;;;;5089601;28;1914;-70
2023/12/28 03:10:21;;;;;;;;;;;17.90;66.00;;;;;;5089931;28;1624;-71
2023/12/28 03:12:46;;;;;;;;;;;17.90;66.10;;;;;;5059657;28;1780;-70
2023/12/28 03:15:12;;;;;;;;;;;17.90;66.10;;;;;;5060022;28;1360;-70
2023/12/28 03:17:37;;;;;;;;;;;17.90;66.10;;;;;;5059592;28;1445;-70
2023/12/28 03:20:03;;;;;;;;;;;17.90;66.10;;;;;;5061044;28;1270;-69
2023/12/28 03:22:29;;;;;;;;;;;17.90;66.80;;;;;;5060696;28;1737;-69
2023/12/28 03:24:54;;;;;;;;;;;17.90;66.10;;;;;;5062226;28;1418;-68
2023/12/28 03:27:20;;;;;;;;;;;17.90;66.10;;;;;;5062866;28;1957;-67
2023/12/28 03:29:45;;;;;;;;;;;17.80;66.10;;;;;;5067160;28;1422;-69
2023/12/28 03:32:10;;;;;;;;;;;17.90;66.10;;;;;;5062450;28;1382;-68
2023/12/28 03:34:36;;;;;;;;;;;17.80;66.00;;;;;;5059816;28;1258;-68
2023/12/28 03:37:02;;;;;;;;;;;17.80;66.00;;;;;;5063133;28;1263;-68
2023/12/28 03:39:27;;;;;;;;;;;17.80;66.10;;;;;;5077655;28;1504;-67
2023/12/28 03:41:53;;;;;;;;;;;17.90;66.10;;;;;;5061238;28;1506;-69
2023/12/28 03:44:21;;;;;;;;;;;17.80;66.10;;;;;;5091852;28;1263;-69
2023/12/28 03:46:47;;;;;;;;;;;17.80;66.10;;;;;;5059968;28;1443;-69
2023/12/28 03:49:14;;;;;;;;;;;17.80;66.10;;;;;;5057190;28;968;-69
2023/12/28 03:51:40;;;;;;;;;;;17.80;66.10;;;;;;5057051;28;1346;-69
2023/12/28 03:54:05;;;;;;;;;;;17.80;66.10;;;;;;5056599;28;1771;-69
2023/12/28 03:56:32;;;;;;;;;;;17.80;66.10;;;;;;5057602;28;1164;-69
2023/12/28 03:58:58;;;;;;;;;;;17.80;66.10;;;;;;5058618;28;1277;-68
2023/12/28 04:01:23;;;;;;;;;;;17.80;66.10;;;;;;5061063;28;1581;-69
2023/12/28 04:03:49;;;;;;;;;;;17.80;66.10;;;;;;5059824;28;1894;-69
2023/12/28 04:06:14;;;;;;;;;;;17.80;66.10;;;;;;5058172;28;1658;-69
2023/12/28 04:08:40;;;;;;;;;;;17.80;66.10;;;;;;5058388;28;2005;-69
2023/12/28 04:11:06;;;;;;;;;;;17.80;66.10;;;;;;5091311;28;1324;-69
2023/12/28 04:13:31;;;;;;;;;;;17.80;66.90;;;;;;5057981;28;1390;-69
2023/12/28 04:15:57;;;;;;;;;;;17.80;66.10;;;;;;5059086;28;1663;-72
2023/12/28 04:18:22;;;;;;;;;;;17.80;66.20;;;;;;5058187;28;934;-70
2023/12/28 04:20:48;;;;;;;;;;;17.80;66.20;;;;;;5059309;28;1272;-70
2023/12/28 04:23:14;;;;;;;;;;;17.80;66.20;;;;;;5060703;28;908;-71
2023/12/28 04:25:39;;;;;;;;;;;17.80;66.10;;;;;;5058311;28;1703;-70
2023/12/28 04:28:04;;;;;;;;;;;17.80;66.20;;;;;;5057356;28;1899;-71
2023/12/28 04:30:30;;;;;;;;;;;17.80;66.20;;;;;;5090284;28;1586;-70
2023/12/28 04:32:55;;;;;;;;;;;17.80;66.20;;;;;;5059087;28;1568;-70
2023/12/28 04:35:21;;;;;;;;;;;17.80;66.20;;;;;;5058940;28;851;-70
2023/12/28 04:37:46;;;;;;;;;;;17.80;66.20;;;;;;5060619;28;1510;-68
2023/12/28 04:40:14;;;;;;;;;;;17.80;66.20;;;;;;5056417;28;1556;-69
2023/12/28 04:42:39;;;;;;;;;;;17.80;66.20;;;;;;5057242;28;1425;-68
2023/12/28 04:45:05;;;;;;;;;;;17.80;66.20;;;;;;5057116;28;1075;-69
2023/12/28 04:47:31;;;;;;;;;;;17.80;66.20;;;;;;5062242;28;1906;-68
2023/12/28 04:49:56;;;;;;;;;;;17.80;66.20;;;;;;5059838;28;1313;-69
2023/12/28 04:52:22;;;;;;;;;;;17.80;66.20;;;;;;5056734;28;1539;-69
2023/12/28 04:54:47;;;;;;;;;;;17.80;66.20;;;;;;5077548;28;1321;-67
2023/12/28 04:57:13;;;;;;;;;;;17.80;66.20;;;;;;5059877;28;1266;-68
2023/12/28 04:59:39;;;;;;;;;;;17.80;66.30;;;;;;5059700;28;1453;-69
2023/12/28 05:02:04;;;;;;;;;;;17.80;66.30;;;;;;5055273;28;1414;-69
2023/12/28 05:04:30;;;;;;;;;;;17.80;66.20;;;;;;5057651;28;1414;-70
2023/12/28 05:06:55;;;;;;;;;;;17.80;66.20;;;;;;5060885;28;1961;-69
2023/12/28 05:09:21;;;;;;;;;;;17.80;66.20;;;;;;5061373;28;1514;-69
2023/12/28 05:11:46;;;;;;;;;;;17.80;66.20;;;;;;5058878;28;1560;-68
2023/12/28 05:14:12;;;;;;;;;;;17.80;66.10;;;;;;5054457;28;1516;-68
2023/12/28 05:16:37;;;;;;;;;;;17.80;66.10;;;;;;5087959;28;1431;-68
2023/12/28 05:19:03;;;;;;;;;;;17.90;66.10;;;;;;5056362;28;1230;-70
2023/12/28 05:21:28;;;;;;;;;;;17.90;66.00;;;;;;5055683;28;1346;-71
2023/12/28 05:23:54;;;;;;;;;;;17.90;65.80;;;;;;5090424;28;1419;-69
2023/12/28 05:26:19;;;;;;;;;;;17.90;65.70;;;;;;5060912;28;1336;-69
2023/12/28 05:28:44;;;;;;;;;;;18.00;65.70;;;;;;5042617;28;1965;-70
2023/12/28 05:31:10;;;;;;;;;;;18.00;65.50;;;;;;5055720;28;1444;-69
2023/12/28 05:33:35;;;;;;;;;;;18.00;65.40;;;;;;5061073;28;1252;-68
2023/12/28 05:36:01;;;;;;;;;;;18.10;65.40;;;;;;5059116;28;1201;-69
2023/12/28 05:38:27;;;;;;;;;;;18.10;65.30;;;;;;5088869;28;1286;-69
2023/12/28 05:40:52;;;;;;;;;;;18.10;65.20;;;;;;5056446;28;1654;-69
2023/12/28 05:43:17;;;;;;;;;;;18.10;65.10;;;;;;5059857;28;1715;-69
2023/12/28 05:45:43;;;;;;;;;;;18.10;65.00;;;;;;5057197;28;1514;-69
2023/12/28 05:48:09;;;;;;;;;;;18.10;64.90;;;;;;5059125;28;1953;-68
2023/12/28 05:50:34;;;;;;;;;;;18.20;64.90;;;;;;5088180;28;1385;-68
2023/12/28 05:53:00;;;;;;;;;;;18.20;64.90;;;;;;5057740;28;1222;-68
2023/12/28 05:55:25;;;;;;;;;;;18.20;64.80;;;;;;5055749;28;1258;-68
2023/12/28 05:57:51;;;;;;;;;;;18.20;64.80;;;;;;5056361;28;1693;-67
2023/12/28 06:00:16;;;;;;;;;;;18.30;64.70;;;;;;5055966;28;1446;-68
2023/12/28 06:02:42;;;;;;;;;;;18.20;64.60;;;;;;5057708;28;1288;-68
2023/12/28 06:05:07;;;;;;;;;;;18.30;64.70;;;;;;5057825;28;1608;-68
2023/12/28 06:07:33;;;;;;;;;;;18.30;64.50;;;;;;5057454;28;1980;-68
2023/12/28 06:09:58;;;;;;;;;;;18.30;64.50;;;;;;5058824;28;1569;-69
2023/12/28 06:12:24;;;;;;;;;;;18.30;64.50;;;;;;5061520;28;1649;-69
2023/12/28 06:14:50;;;;;;;;;;;18.30;64.40;;;;;;5057144;28;1521;-69
2023/12/28 06:17:15;;;;;;;;;;;18.30;64.40;;;;;;5057233;28;1569;-69
2023/12/28 06:19:41;;;;;;;;;;;18.30;64.30;;;;;;5061273;28;1402;-69
2023/12/28 06:22:06;;;;;;;;;;;18.30;64.30;;;;;;5092310;28;1423;-68
2023/12/28 06:24:32;;;;;;;;;;;18.30;64.30;;;;;;5061160;28;1460;-69
2023/12/28 06:26:57;;;;;;;;;;;18.30;64.30;;;;;;5061892;28;1906;-68
2023/12/28 06:29:23;;;;;;;;;;;18.40;64.30;;;;;;5060674;28;1122;-69
2023/12/28 06:31:48;;;;;;;;;;;18.40;64.30;;;;;;5061453;28;1737;-69
2023/12/28 06:34:14;;;;;;;;;;;18.40;64.30;;;;;;5062112;28;1405;-69
2023/12/28 06:36:39;;;;;;;;;;;18.40;64.20;;;;;;5063041;28;1642;-68
2023/12/28 06:39:05;;;;;;;;;;;18.40;64.20;;;;;;5060443;28;1570;-70
2023/12/28 06:41:30;;;;;;;;;;;18.40;64.20;;;;;;5063915;28;1244;-70
2023/12/28 06:43:56;;;;;;;;;;;18.40;64.20;;;;;;5061339;28;1447;-71
2023/12/28 06:46:21;;;;;;;;;;;18.40;64.20;;;;;;5058997;28;1236;-70
2023/12/28 06:48:47;;;;;;;;;;;18.40;64.10;;;;;;5059898;28;1901;-71
2023/12/28 06:51:21;;;;;;;;;;;18.40;64.10;;;;;;5059572;28;1295;-69
2023/12/28 06:53:48;;;;;;;;;;;18.40;64.20;;;;;;5091006;28;1465;-69
2023/12/28 06:56:14;;;;;;;;;;;18.40;64.10;;;;;;5061104;28;1500;-69
2023/12/28 06:58:39;;;;;;;;;;;18.40;64.90;;;;;;5062251;28;1466;-71
2023/12/28 07:01:05;;;;;;;;;;;18.40;64.10;;;;;;5057762;28;1367;-70
2023/12/28 07:03:32;;;;;;;;;;;18.40;64.20;;;;;;5059747;28;1562;-71
2023/12/28 07:05:58;;;;;;;;;;;18.40;64.10;;;;;;5057910;28;1535;-70
2023/12/28 07:08:23;;;;;;;;;;;18.40;64.10;;;;;;5061291;28;1902;-71
2023/12/28 07:10:49;;;;;;;;;;;18.40;64.20;;;;;;5057548;28;1382;-70
2023/12/28 07:13:14;;;;;;;;;;;18.40;64.20;;;;;;5092786;28;1459;-70
2023/12/28 07:15:40;;;;;;;;;;;18.40;64.20;;;;;;5061288;28;1527;-70
2023/12/28 07:18:05;;;;;;;;;;;18.40;64.20;;;;;;5060282;28;1401;-71
2023/12/28 07:20:31;;;;;;;;;;;18.40;64.20;;;;;;5058296;28;1360;-71
2023/12/28 07:22:56;;;;;;;;;;;18.40;64.20;;;;;;5055217;28;1296;-70
2023/12/28 07:25:22;;;;;;;;;;;18.40;64.30;;;;;;5058490;28;1437;-68
2023/12/28 07:27:47;;;;;;;;;;;18.40;64.30;;;;;;5062752;28;1965;-69
2023/12/28 07:30:13;;;;;;;;;;;18.40;64.30;;;;;;5058173;28;1649;-68
2023/12/28 07:32:38;;;;;;;;;;;18.40;64.30;;;;;;5056071;28;1395;-68
2023/12/28 07:35:04;;;;;;;;;;;18.30;64.30;;;;;;5057790;28;1455;-68
2023/12/28 07:37:29;;;;;;;;;;;18.40;64.40;;;;;;5058993;28;1357;-68
2023/12/28 07:39:55;;;;;;;;;;;18.30;64.30;;;;;;5061104;28;2424;-68
2023/12/28 07:42:20;;;;;;;;;;;18.30;64.30;;;;;;5059846;28;1493;-69
2023/12/28 07:44:46;;;;;;;;;;;18.30;64.40;;;;;;5059431;28;1594;-68
2023/12/28 07:47:12;;;;;;;;;;;18.30;64.40;;;;;;5094621;28;1965;-66
2023/12/28 07:49:37;;;;;;;;;;;18.30;64.40;;;;;;5058386;28;1476;-67
2023/12/28 07:52:03;;;;;;;;;;;18.30;64.40;;;;;;5059574;28;1524;-67
2023/12/28 07:54:28;;;;;;;;;;;18.30;64.40;;;;;;5058119;28;1565;-67
2023/12/28 07:56:54;;;;;;;;;;;18.30;64.40;;;;;;5059201;28;1711;-66
2023/12/28 07:59:19;;;;;;;;;;;18.30;64.50;;;;;;5057227;28;1669;-67
2023/12/28 08:01:45;;;;;;;;;;;18.30;64.50;;;;;;5057798;28;1400;-69
2023/12/28 08:04:11;;;;;;;;;;;18.30;64.50;;;;;;5090733;28;1582;-69
2023/12/28 08:06:36;;;;;;;;;;;18.30;64.50;;;;;;5089971;28;1317;-69
2023/12/28 08:09:02;;;;;;;;;;;18.30;64.70;;;;;;5057609;28;1906;-70
2023/12/28 08:11:27;;;;;;;;;;;18.30;64.60;;;;;;5058665;28;1525;-68
2023/12/28 08:13:53;;;;;;;;;;;18.30;64.60;;;;;;5060309;28;1528;-69
2023/12/28 08:16:19;;;;;;;;;;;18.30;64.70;;;;;;5091060;28;1345;-69
2023/12/28 08:18:44;;;;;;;;;;;18.30;64.60;;;;;;5088148;28;1209;-72
2023/12/28 08:21:10;;;;;;;;;;;18.30;64.70;;;;;;5056877;28;1490;-69
2023/12/28 08:23:35;;;;;;;;;;;18.30;64.70;;;;;;5059021;28;1636;-71
2023/12/28 08:26:01;;;;;;;;;;;18.30;64.70;;;;;;5057660;28;1451;-70
2023/12/28 08:28:26;;;;;;;;;;;18.30;64.70;;;;;;5056468;28;1951;-70
2023/12/28 08:30:52;;;;;;;;;;;18.20;64.70;;;;;;5060127;28;1521;-71
2023/12/28 08:33:17;;;;;;;;;;;18.30;64.70;;;;;;5055278;28;1290;-70
2023/12/28 08:35:43;;;;;;;;;;;18.20;64.70;;;;;;5056089;28;1479;-71
2023/12/28 08:38:08;;;;;;;;;;;18.20;64.70;;;;;;5058942;28;1534;-70
2023/12/28 08:40:34;;;;;;;;;;;18.20;64.70;;;;;;5055420;28;1530;-70
2023/12/28 08:42:59;;;;;;;;;;;18.30;64.80;;;;;;5059772;28;1597;-69
2023/12/28 08:45:25;;;;;;;;;;;18.20;64.70;;;;;;5052648;28;1280;-71
2023/12/28 08:47:50;;;;;;;;;;;18.30;64.70;;;;;;5054774;28;1968;-71
2023/12/28 08:50:16;;;;;;;;;;;18.30;64.70;;;;;;5061827;28;1209;-71
2023/12/28 08:52:41;;;;;;;;;;;18.30;64.70;;;;;;5058724;28;1265;-71
2023/12/28 08:55:07;;;;;;;;;;;18.30;64.70;;;;;;5056994;28;1266;-70
2023/12/28 08:57:33;;;;;;;;;;;18.30;64.70;;;;;;5057863;28;1262;-70
2023/12/28 09:00:00;;;;;;;;;;;18.30;64.50;;;;;;5058005;28;1330;-72
2023/12/28 09:02:29;;;;;;;;;;;18.30;64.50;;;;;;5088050;28;1355;-71
2023/12/28 09:04:54;;;;;;;;;;;18.30;64.40;;;;;;5044323;28;1783;-70
2023/12/28 09:07:19;;;;;;;;;;;18.30;64.40;;;;;;5056372;28;1994;-70
2023/12/28 09:09:45;;;;;;;;;;;18.30;64.40;;;;;;5056241;28;1421;-70
2023/12/28 09:12:11;;;;;;;;;;;18.30;64.30;;;;;;5091407;28;1378;-71
2023/12/28 09:14:36;;;;;;;;;;;18.40;64.30;;;;;;5074402;28;1519;-70
2023/12/28 09:17:02;;;;;;;;;;;18.40;64.30;;;;;;5090551;28;1810;-70
2023/12/28 09:19:27;;;;;;;;;;;18.40;64.30;;;;;;5056875;28;1298;-69
2023/12/28 09:21:53;;;;;;;;;;;18.40;64.20;;;;;;5057236;28;1421;-71
2023/12/28 09:24:18;;;;;;;;;;;18.40;64.20;;;;;;5087968;28;1682;-70
2023/12/28 09:26:44;;;;;;;;;;;18.40;64.10;;;;;;5060126;28;1299;-70
2023/12/28 09:29:09;;;;;;;;;;;18.40;64.10;;;;;;5072673;28;1959;-71
2023/12/28 09:31:35;;;;;;;;;;;18.40;64.10;;;;;;5073686;28;1355;-71
2023/12/28 09:34:00;;;;;;;;;;;18.40;64.00;;;;;;5060939;28;1602;-70
2023/12/28 09:36:26;;;;;;;;;;;18.40;64.00;;;;;;5088811;28;1613;-70
2023/12/28 09:38:51;;;;;;;;;;;18.40;64.00;;;;;;5091182;28;1389;-70
2023/12/28 09:41:17;;;;;;;;;;;18.40;64.10;;;;;;5056813;28;1583;-70
2023/12/28 09:43:51;;;;;;;;;;;18.40;64.00;;;;;;5057720;28;1459;-70
2023/12/28 09:46:17;;;;;;;;;;;18.40;64.00;;;;;;5091886;28;891;-71
2023/12/28 09:48:42;;;;;;;;;;;18.40;64.10;;;;;;5062258;28;1969;-69
2023/12/28 09:51:07;;;;;;;;;;;18.40;64.10;;;;;;5091630;28;1803;-72
2023/12/28 09:53:33;;;;;;;;;;;18.40;64.10;;;;;;5081936;28;4444;-71
2023/12/28 09:55:58;;;;;;;;;;;18.40;64.20;;;;;;5093403;28;1652;-70
2023/12/28 09:58:24;;;;;;;;;;;18.40;64.20;;;;;;5096265;28;1493;-70
2023/12/28 10:00:50;;;;;;;;;;;18.40;64.20;;;;;;5092610;28;1463;-70
2023/12/28 10:03:16;;;;;;;;;;;18.40;64.20;;;;;;5092163;28;1603;-71
2023/12/28 10:05:42;;;;;;;;;;;18.40;64.30;;;;;;5059651;28;1504;-71
2023/12/28 10:08:07;;;;;;;;;;;18.40;64.30;;;;;;5092798;28;1976;-68
2023/12/28 10:10:33;;;;;;;;;;;18.40;64.30;;;;;;5060460;28;1375;-69
2023/12/28 10:12:59;;;;;;;;;;;18.40;64.30;;;;;;5060495;28;1236;-69
2023/12/28 10:15:25;;;;;;;;;;;18.40;64.30;;;;;;5093907;28;1102;-68
2023/12/28 10:17:51;;;;;;;;;;;18.40;64.30;;;;;;5058786;28;1751;-70
2023/12/28 10:20:17;;;;;;;;;;;18.40;64.30;;;;;;5075917;28;1222;-70
2023/12/28 10:22:42;;;;;;;;;;;18.40;64.30;;;;;;5059748;28;1458;-69
2023/12/28 10:25:08;;;;;;;;;;;18.40;64.20;;;;;;5059306;28;1223;-69
2023/12/28 10:27:37;;;;;;;;;;;18.40;64.20;;;;;;5093096;28;1960;-69
2023/12/28 10:30:03;;;;;;;;;;;18.40;64.20;;;;;;5094139;28;1305;-69
2023/12/28 10:32:28;;;;;;;;;;;18.40;64.40;;;;;;5056725;28;1688;-69
2023/12/28 10:34:54;;;;;;;;;;;18.40;64.30;;;;;;5062021;28;1309;-69
2023/12/28 10:37:20;;;;;;;;;;;18.40;64.40;;;;;;5078466;28;1280;-70
2023/12/28 10:39:47;;;;;;;;;;;18.40;64.40;;;;;;5061445;28;1258;-68
2023/12/28 10:42:14;;;;;;;;;;;18.30;64.40;;;;;;5094936;28;1410;-69
2023/12/28 10:44:39;;;;;;;;;;;18.30;64.50;;;;;;5058117;28;1569;-68
2023/12/28 10:47:05;;;;;;;;;;;18.30;64.50;;;;;;5058665;28;1993;-69
2023/12/28 10:49:30;;;;;;;;;;;18.30;64.60;;;;;;5065392;28;1479;-68
2023/12/28 10:51:56;;;;;;;;;;;18.30;64.60;;;;;;5094255;28;1761;-68
2023/12/28 10:54:39;;;;;;;;;;;18.30;64.60;;;;;;5095754;28;1348;-70
2023/12/28 10:57:09;;;;;;;;;;;18.30;64.60;;;;;;5043400;28;1269;-69
2023/12/28 10:59:50;;;;;;;;;;;18.30;64.70;;;;;;5073476;28;1704;-70
2023/12/28 11:02:17;;;;;;;;;;;18.30;64.70;;;;;;5075258;28;2392;-70
2023/12/28 11:04:44;;;;;;;;;;;18.30;64.70;;;;;;5058687;28;1340;-70
2023/12/28 11:07:12;;;;;;;;;;;18.30;64.70;;;;;;5061606;28;1973;-70
2023/12/28 11:09:37;;;;;;;;;;;18.30;64.60;;;;;;5060247;28;1272;-69
2023/12/28 11:12:03;;;;;;;;;;;18.30;64.70;;;;;;5061624;28;1375;-70
2023/12/28 11:14:28;;;;;;;;;;;18.30;64.70;;;;;;5057715;28;1269;-71
2023/12/28 11:16:54;;;;;;;;;;;18.30;64.70;;;;;;5058011;28;1435;-71
2023/12/28 11:19:21;;;;;;;;;;;18.30;64.70;;;;;;5057660;28;1262;-71
2023/12/28 11:21:47;;;;;;;;;;;18.30;64.70;;;;;;5091714;28;1301;-71
2023/12/28 11:24:13;;;;;;;;;;;18.30;64.80;;;;;;5059278;28;1490;-71
2023/12/28 11:26:38;;;;;;;;;;;18.30;64.80;;;;;;5089302;28;1488;-71
2023/12/28 11:29:04;;;;;;;;;;;18.30;64.80;;;;;;5059922;28;1929;-70
2023/12/28 11:31:35;;;;;;;;;;;18.30;64.80;;;;;;5057073;28;1315;-72
2023/12/28 11:34:01;;;;;;;;;;;18.30;64.90;;;;;;5059114;28;1282;-70
2023/12/28 11:36:32;;;;;;;;;;;18.30;64.90;;;;;;5057640;28;1262;-72
2023/12/28 11:39:00;;;;;;;;;;;18.20;64.90;;;;;;5088577;28;1219;-71
2023/12/28 11:41:26;;;;;;;;;;;18.20;64.90;;;;;;5056008;28;1374;-72
2023/12/28 11:43:53;;;;;;;;;;;18.30;65.00;;;;;;5056039;28;1313;-71
2023/12/28 11:46:19;;;;;;;;;;;18.30;65.00;;;;;;5059476;28;1474;-71
2023/12/28 11:48:45;;;;;;;;;;;18.30;65.00;;;;;;5089620;28;1956;-71
2023/12/28 11:51:10;;;;;;;;;;;18.30;65.00;;;;;;5058456;28;1291;-71
2023/12/28 11:53:36;;;;;;;;;;;18.30;65.00;;;;;;5057960;28;1962;-70
2023/12/28 11:56:06;;;;;;;;;;;18.30;64.90;;;;;;5081290;28;1444;-71
2023/12/28 11:58:34;;;;;;;;;;;18.30;64.90;;;;;;5060235;28;1341;-71
2023/12/28 12:00:59;;;;;;;;;;;18.30;64.90;;;;;;5056774;28;1477;-71
2023/12/28 12:03:25;;;;;;;;;;;18.30;64.90;;;;;;5091733;28;1189;-72
2023/12/28 12:05:50;;;;;;;;;;;18.30;64.80;;;;;;5055665;28;1243;-71
2023/12/28 12:08:16;;;;;;;;;;;18.30;64.80;;;;;;5059513;28;1975;-72
2023/12/28 12:10:41;;;;;;;;;;;18.30;64.80;;;;;;5056433;28;1557;-71
2023/12/28 12:13:07;;;;;;;;;;;18.30;64.70;;;;;;5089163;28;2350;-71
2023/12/28 12:15:33;;;;;;;;;;;18.30;64.70;;;;;;5087105;28;1898;-71
2023/12/28 12:17:58;;;;;;;;;;;18.30;64.70;;;;;;5059311;28;1357;-70
2023/12/28 12:20:24;;;;;;;;;;;18.30;64.60;;;;;;5057619;28;1321;-70
2023/12/28 12:22:49;;;;;;;;;;;18.30;64.60;;;;;;5055994;28;1252;-71
2023/12/28 12:25:15;;;;;;;;;;;18.30;64.60;;;;;;5057401;28;1444;-72
2023/12/28 12:27:41;;;;;;;;;;;18.30;64.60;;;;;;5055887;28;1914;-72
2023/12/28 12:30:07;;;;;;;;;;;18.30;64.60;;;;;;5089011;28;1367;-72
2023/12/28 12:32:32;;;;;;;;;;;18.40;64.60;;;;;;5090192;28;1346;-72
2023/12/28 12:34:58;;;;;;;;;;;18.40;64.60;;;;;;5076500;28;1472;-72
2023/12/28 12:37:23;;;;;;;;;;;18.30;64.50;;;;;;5061736;28;1231;-72
2023/12/28 12:39:49;;;;;;;;;;;18.30;64.60;;;;;;5078143;28;1317;-70
2023/12/28 12:42:14;;;;;;;;;;;18.30;64.60;;;;;;5058110;28;1264;-72
2023/12/28 12:44:40;;;;;;;;;;;18.30;64.60;;;;;;5056292;28;1978;-72
2023/12/28 12:47:07;;;;;;;;;;;18.30;64.70;;;;;;5076913;28;1537;-72
2023/12/28 12:49:32;;;;;;;;;;;18.30;64.70;;;;;;5058065;28;1976;-71
2023/12/28 12:51:58;;;;;;;;;;;18.30;64.70;;;;;;5055801;28;1712;-71
2023/12/28 12:54:24;;;;;;;;;;;18.30;64.80;;;;;;5057878;28;1358;-70
2023/12/28 12:56:49;;;;;;;;;;;18.30;64.80;;;;;;5059472;28;1392;-71
2023/12/28 12:59:18;;;;;;;;;;;18.30;64.80;;;;;;5088711;28;1285;-70
2023/12/28 13:01:44;;;;;;;;;;;18.30;64.90;;;;;;5073744;28;1413;-70
2023/12/28 13:04:10;;;;;;;;;;;18.30;64.90;;;;;;5057366;28;1285;-71
2023/12/28 13:06:35;;;;;;;;;;;18.30;64.90;;;;;;5056761;28;1299;-70
2023/12/28 13:09:01;;;;;;;;;;;18.30;64.90;;;;;;5055236;28;1918;-71
2023/12/28 13:11:26;;;;;;;;;;;18.30;65.00;;;;;;5055442;28;1376;-70
2023/12/28 13:13:52;;;;;;;;;;;18.20;64.90;;;;;;5055467;28;1156;-70
2023/12/28 13:16:18;;;;;;;;;;;18.20;65.00;;;;;;5059055;28;1314;-71
2023/12/28 13:18:43;;;;;;;;;;;18.20;64.90;;;;;;5093047;28;1413;-71
2023/12/28 13:21:09;;;;;;;;;;;18.20;65.00;;;;;;5060559;28;1485;-70
2023/12/28 13:23:34;;;;;;;;;;;18.20;65.00;;;;;;5062122;28;1332;-70
2023/12/28 13:26:00;;;;;;;;;;;18.20;65.00;;;;;;5061566;28;1424;-70
2023/12/28 13:28:25;;;;;;;;;;;18.20;65.00;;;;;;5061998;28;1930;-72
2023/12/28 13:30:50;;;;;;;;;;;18.20;65.00;;;;;;5061503;28;1387;-70
2023/12/28 13:33:16;;;;;;;;;;;18.20;65.10;;;;;;5058168;28;1599;-72
2023/12/28 13:35:42;;;;;;;;;;;18.20;65.10;;;;;;5078072;28;1337;-72
2023/12/28 13:38:07;;;;;;;;;;;18.20;65.10;;;;;;5055558;28;2104;-70
2023/12/28 13:40:33;;;;;;;;;;;18.20;65.10;;;;;;5057935;28;1355;-71
2023/12/28 13:42:58;;;;;;;;;;;18.20;65.10;;;;;;5063626;28;1152;-72
2023/12/28 13:45:24;;;;;;;;;;;18.20;65.10;;;;;;5067831;28;2009;-71
2023/12/28 13:47:49;;;;;;;;;;;18.20;65.10;;;;;;5058446;28;1902;-71
2023/12/28 13:50:15;;;;;;;;;;;18.20;65.20;;;;;;5085772;28;1456;-71
2023/12/28 13:52:40;;;;;;;;;;;18.20;65.20;;;;;;5079793;28;1397;-71
2023/12/28 13:55:06;;;;;;;;;;;18.20;65.20;;;;;;5061671;28;1521;-71
2023/12/28 13:57:32;;;;;;;;;;;18.20;65.20;;;;;;5060819;28;801;-69
2023/12/28 14:00:00;;;;;;;;;;;18.20;65.20;;;;;;5092947;28;1353;-71
2023/12/28 14:02:25;;;;;;;;;;;18.20;65.20;;;;;;5059090;28;1348;-70
2023/12/28 14:04:51;;;;;;;;;;;18.20;65.20;;;;;;5061369;28;1435;-70
2023/12/28 14:07:16;;;;;;;;;;;18.20;65.20;;;;;;5059161;28;1906;-72
2023/12/28 14:09:42;;;;;;;;;;;18.20;65.30;;;;;;5061182;28;1448;-72
2023/12/28 14:12:07;;;;;;;;;;;18.20;65.30;;;;;;5062832;28;1575;-71
2023/12/28 14:14:33;;;;;;;;;;;18.20;65.30;;;;;;5060719;28;1626;-72
2023/12/28 14:16:58;;;;;;;;;;;18.20;65.30;;;;;;5059674;28;1478;-72
2023/12/28 14:19:24;;;;;;;;;;;18.20;65.30;;;;;;5060831;28;2244;-72
2023/12/28 14:21:49;;;;;;;;;;;18.10;65.30;;;;;;5060020;28;1344;-72